createdAt,value
2018-06-11T00:00:30.389Z,0
2018-06-11T00:01:30.353Z,0
2018-06-11T00:02:30.387Z,0
2018-06-11T00:03:30.393Z,0
2018-06-11T00:04:30.363Z,0
2018-06-11T00:05:30.315Z,0
2018-06-11T00:06:30.458Z,0
2018-06-11T00:07:30.363Z,0
2018-06-11T00:08:30.306Z,0
2018-06-11T00:09:30.319Z,0
2018-06-11T00:10:30.365Z,0
2018-06-11T00:11:30.296Z,0
2018-06-11T00:12:30.311Z,0
2018-06-11T00:13:30.295Z,0
2018-06-11T00:14:30.399Z,0
2018-06-11T00:15:30.367Z,0
2018-06-11T00:16:30.348Z,0
2018-06-11T00:17:30.335Z,0
2018-06-11T00:18:30.397Z,0
2018-06-11T00:19:30.367Z,0
2018-06-11T00:20:30.370Z,0
2018-06-11T00:21:30.309Z,0
2018-06-11T00:22:30.471Z,0
2018-06-11T00:23:30.399Z,0
2018-06-11T00:24:30.309Z,0
2018-06-11T00:25:30.345Z,0
2018-06-11T00:26:30.392Z,0
2018-06-11T00:27:30.352Z,0
2018-06-11T00:28:30.339Z,0
2018-06-11T00:29:30.291Z,0
2018-06-11T00:30:30.300Z,0
2018-06-11T00:31:30.436Z,0
2018-06-11T00:32:30.398Z,0
2018-06-11T00:33:30.315Z,0
2018-06-11T00:34:30.397Z,0
2018-06-11T00:35:30.383Z,0
2018-06-11T00:36:30.389Z,0
2018-06-11T00:37:30.386Z,0
2018-06-11T00:38:30.388Z,0
2018-06-11T00:39:30.308Z,0
2018-06-11T00:40:30.407Z,0
2018-06-11T00:41:30.332Z,0
2018-06-11T00:42:30.389Z,0
2018-06-11T00:43:30.350Z,0
2018-06-11T00:44:30.380Z,0
2018-06-11T00:45:30.380Z,0
2018-06-11T00:46:30.310Z,0
2018-06-11T00:47:30.381Z,0
2018-06-11T00:48:30.372Z,0
2018-06-11T00:49:30.316Z,0
2018-06-11T00:50:30.381Z,0
2018-06-11T00:51:30.311Z,0
2018-06-11T00:52:30.384Z,0
2018-06-11T00:53:30.340Z,0
2018-06-11T00:54:30.272Z,0
2018-06-11T00:55:30.312Z,0
2018-06-11T00:56:30.341Z,0
2018-06-11T00:57:30.311Z,0
2018-06-11T00:58:30.259Z,0
2018-06-11T00:59:30.263Z,0
2018-06-11T01:00:30.350Z,0
2018-06-11T01:01:30.311Z,0
2018-06-11T01:02:30.319Z,0
2018-06-11T01:03:30.315Z,0
2018-06-11T01:04:30.330Z,0
2018-06-11T01:05:30.393Z,0
2018-06-11T01:06:30.325Z,0
2018-06-11T01:07:30.396Z,0
2018-06-11T01:08:30.331Z,0
2018-06-11T01:09:30.397Z,0
2018-06-11T01:10:30.395Z,0
2018-06-11T01:11:30.329Z,0
2018-06-11T01:12:30.329Z,0
2018-06-11T01:13:30.403Z,0
2018-06-11T01:14:30.416Z,0
2018-06-11T01:15:30.413Z,0
2018-06-11T01:16:30.352Z,0
2018-06-11T01:17:30.342Z,0
2018-06-11T01:18:30.344Z,0
2018-06-11T01:19:30.344Z,0
2018-06-11T01:20:30.342Z,0
2018-06-11T01:21:30.410Z,0
2018-06-11T01:22:30.346Z,0
2018-06-11T01:23:30.345Z,0
2018-06-11T01:24:30.419Z,0
2018-06-11T01:25:30.440Z,0
2018-06-11T01:26:30.397Z,0
2018-06-11T01:27:30.334Z,0
2018-06-11T01:28:30.454Z,0
2018-06-11T01:29:30.411Z,0
2018-06-11T01:30:30.458Z,0
2018-06-11T01:31:30.319Z,0
2018-06-11T01:32:30.420Z,0
2018-06-11T01:33:30.346Z,0
2018-06-11T01:34:30.343Z,0
2018-06-11T01:35:30.414Z,0
2018-06-11T01:36:30.346Z,0
2018-06-11T01:37:30.413Z,0
2018-06-11T01:38:30.344Z,0
2018-06-11T01:39:30.343Z,0
2018-06-11T01:40:30.419Z,0
2018-06-11T01:41:30.348Z,0
2018-06-11T01:42:30.457Z,0
2018-06-11T01:43:30.352Z,0
2018-06-11T01:44:30.473Z,0
2018-06-11T01:45:30.357Z,0
2018-06-11T01:46:30.359Z,0
2018-06-11T01:47:30.359Z,0
2018-06-11T01:48:30.359Z,0
2018-06-11T01:49:30.362Z,0
2018-06-11T01:50:30.442Z,0
2018-06-11T01:51:30.441Z,0
2018-06-11T01:52:30.362Z,0
2018-06-11T01:53:30.434Z,0
2018-06-11T01:54:30.355Z,0
2018-06-11T01:55:30.481Z,0
2018-06-11T01:56:30.456Z,0
2018-06-11T01:57:30.453Z,0
2018-06-11T01:58:30.477Z,0
2018-06-11T01:59:30.414Z,0
2018-06-11T02:00:30.435Z,0
2018-06-11T02:01:30.477Z,0
2018-06-11T02:02:30.439Z,0
2018-06-11T02:03:30.473Z,0
2018-06-11T02:04:30.361Z,0
2018-06-11T02:05:30.437Z,0
2018-06-11T02:06:30.360Z,0
2018-06-11T02:07:30.439Z,0
2018-06-11T02:08:30.367Z,0
2018-06-11T02:09:30.437Z,0
2018-06-11T02:10:30.365Z,0
2018-06-11T02:11:30.436Z,0
2018-06-11T02:12:30.365Z,0
2018-06-11T02:13:30.323Z,0
2018-06-11T02:14:30.428Z,0
2018-06-11T02:15:30.470Z,0
2018-06-11T02:16:30.424Z,0
2018-06-11T02:17:30.468Z,0
2018-06-11T02:18:30.408Z,0
2018-06-11T02:19:30.507Z,0
2018-06-11T02:20:30.431Z,4
2018-06-11T02:21:30.425Z,4
2018-06-11T02:22:30.411Z,4
2018-06-11T02:23:30.391Z,4
2018-06-11T02:24:30.339Z,4
2018-06-11T02:25:30.242Z,0
2018-06-11T02:26:30.345Z,4
2018-06-11T02:27:30.335Z,4
2018-06-11T02:28:30.339Z,4
2018-06-11T02:29:30.238Z,8
2018-06-11T02:30:30.344Z,4
2018-06-11T02:31:30.246Z,8
2018-06-11T02:32:30.252Z,8
2018-06-11T02:33:30.255Z,8
2018-06-11T02:34:30.322Z,8
2018-06-11T02:35:30.323Z,8
2018-06-11T02:36:30.379Z,12
2018-06-11T02:37:30.323Z,12
2018-06-11T02:38:30.326Z,16
2018-06-11T02:39:30.327Z,20
2018-06-11T02:40:30.382Z,24
2018-06-11T02:41:30.383Z,20
2018-06-11T02:42:30.384Z,28
2018-06-11T02:43:30.329Z,28
2018-06-11T02:44:30.395Z,36
2018-06-11T02:45:30.467Z,40
2018-06-11T02:46:30.391Z,48
2018-06-11T02:47:30.462Z,52
2018-06-11T02:48:30.389Z,56
2018-06-11T02:49:30.468Z,64
2018-06-11T02:50:30.393Z,64
2018-06-11T02:51:30.466Z,64
2018-06-11T02:52:30.393Z,72
2018-06-11T02:53:30.465Z,72
2018-06-11T02:54:30.392Z,80
2018-06-11T02:55:30.466Z,88
2018-06-11T02:56:30.397Z,92
2018-06-11T02:57:30.466Z,104
2018-06-11T02:58:30.466Z,112
2018-06-11T02:59:30.400Z,128
2018-06-11T03:00:30.469Z,140
2018-06-11T03:01:30.404Z,148
2018-06-11T03:02:30.474Z,156
2018-06-11T03:03:30.404Z,160
2018-06-11T03:04:30.351Z,164
2018-06-11T03:05:30.375Z,180
2018-06-11T03:06:30.469Z,200
2018-06-11T03:07:30.372Z,216
2018-06-11T03:08:30.379Z,232
2018-06-11T03:09:30.466Z,252
2018-06-11T03:10:30.399Z,268
2018-06-11T03:11:30.466Z,284
2018-06-11T03:12:30.463Z,312
2018-06-11T03:13:30.469Z,324
2018-06-11T03:14:30.428Z,328
2018-06-11T03:15:30.418Z,340
2018-06-11T03:16:30.418Z,352
2018-06-11T03:17:30.460Z,372
2018-06-11T03:18:30.493Z,388
2018-06-11T03:19:30.492Z,400
2018-06-11T03:20:30.384Z,408
2018-06-11T03:21:30.497Z,420
2018-06-11T03:22:30.426Z,432
2018-06-11T03:23:30.424Z,444
2018-06-11T03:24:30.428Z,476
2018-06-11T03:25:30.548Z,520
2018-06-11T03:26:30.502Z,576
2018-06-11T03:27:30.503Z,608
2018-06-11T03:28:30.494Z,628
2018-06-11T03:29:30.586Z,660
2018-06-11T03:30:30.478Z,708
2018-06-11T03:31:30.530Z,740
2018-06-11T03:32:30.527Z,764
2018-06-11T03:33:30.544Z,796
2018-06-11T03:34:30.439Z,844
2018-06-11T03:35:30.496Z,896
2018-06-11T03:36:30.444Z,940
2018-06-11T03:37:30.419Z,980
2018-06-11T03:38:30.559Z,1024
2018-06-11T03:39:30.460Z,1032
2018-06-11T03:40:30.529Z,988
2018-06-11T03:41:30.513Z,956
2018-06-11T03:42:30.540Z,944
2018-06-11T03:43:30.543Z,952
2018-06-11T03:44:30.482Z,968
2018-06-11T03:45:30.547Z,1020
2018-06-11T03:46:30.443Z,1100
2018-06-11T03:47:30.431Z,1168
2018-06-11T03:48:30.430Z,1200
2018-06-11T03:49:30.449Z,1192
2018-06-11T03:50:30.481Z,1176
2018-06-11T03:51:30.507Z,1164
2018-06-11T03:52:30.482Z,1180
2018-06-11T03:53:30.435Z,1232
2018-06-11T03:54:30.506Z,1288
2018-06-11T03:55:30.435Z,1348
2018-06-11T03:56:30.436Z,1400
2018-06-11T03:57:30.509Z,1420
2018-06-11T03:58:30.441Z,1428
2018-06-11T03:59:30.439Z,1460
2018-06-11T04:00:30.509Z,1500
2018-06-11T04:01:30.438Z,1528
2018-06-11T04:02:30.510Z,1560
2018-06-11T04:03:30.445Z,1608
2018-06-11T04:04:30.553Z,1704
2018-06-11T04:05:30.558Z,1848
2018-06-11T04:06:30.526Z,2008
2018-06-11T04:07:30.499Z,2128
2018-06-11T04:08:30.491Z,2260
2018-06-11T04:09:30.443Z,2436
2018-06-11T04:10:30.504Z,2596
2018-06-11T04:11:30.491Z,2652
2018-06-11T04:12:30.526Z,2636
2018-06-11T04:13:30.450Z,2588
2018-06-11T04:14:30.478Z,2652
2018-06-11T04:15:30.383Z,2872
2018-06-11T04:16:30.383Z,3024
2018-06-11T04:17:30.430Z,3012
2018-06-11T04:18:30.475Z,3132
2018-06-11T04:19:30.428Z,3376
2018-06-11T04:20:30.390Z,3676
2018-06-11T04:21:30.429Z,4036
2018-06-11T04:22:30.396Z,3988
2018-06-11T04:23:30.474Z,3604
2018-06-11T04:24:30.492Z,3372
2018-06-11T04:25:30.408Z,3380
2018-06-11T04:26:30.451Z,3468
2018-06-11T04:27:30.454Z,3480
2018-06-11T04:28:30.449Z,3460
2018-06-11T04:29:30.410Z,3364
2018-06-11T04:30:30.547Z,3284
2018-06-11T04:31:30.579Z,3464
2018-06-11T04:32:30.526Z,3840
2018-06-11T04:33:30.502Z,4308
2018-06-11T04:34:30.440Z,4724
2018-06-11T04:35:30.499Z,4780
2018-06-11T04:36:30.616Z,4648
2018-06-11T04:37:30.463Z,4548
2018-06-11T04:38:30.520Z,4544
2018-06-11T04:39:30.539Z,4644
2018-06-11T04:40:30.518Z,4824
2018-06-11T04:41:30.495Z,5052
2018-06-11T04:42:30.540Z,5320
2018-06-11T04:43:30.484Z,5504
2018-06-11T04:44:30.522Z,5440
2018-06-11T04:45:30.453Z,5216
2018-06-11T04:46:30.577Z,4880
2018-06-11T04:47:30.484Z,4912
2018-06-11T04:48:30.512Z,5448
2018-06-11T04:49:30.583Z,5912
2018-06-11T04:50:30.524Z,6180
2018-06-11T04:51:30.465Z,6296
2018-06-11T04:52:30.565Z,6172
2018-06-11T04:53:30.471Z,5836
2018-06-11T04:54:30.581Z,5580
2018-06-11T04:55:30.509Z,5536
2018-06-11T04:56:30.549Z,5652
2018-06-11T04:57:30.458Z,5768
2018-06-11T04:58:30.553Z,6004
2018-06-11T04:59:30.576Z,6464
2018-06-11T05:00:30.555Z,7012
2018-06-11T05:01:30.480Z,7528
2018-06-11T05:02:30.519Z,7828
2018-06-11T05:03:30.562Z,7984
2018-06-11T05:04:30.492Z,8156
2018-06-11T05:05:30.555Z,8412
2018-06-11T05:06:30.488Z,8480
2018-06-11T05:07:30.491Z,8308
2018-06-11T05:08:30.564Z,8068
2018-06-11T05:09:30.561Z,8016
2018-06-11T05:10:30.493Z,8272
2018-06-11T05:11:30.564Z,8820
2018-06-11T05:12:30.492Z,9244
2018-06-11T05:13:30.498Z,8988
2018-06-11T05:14:30.520Z,7724
2018-06-11T05:15:30.579Z,7036
2018-06-11T05:16:30.496Z,7068
2018-06-11T05:17:30.499Z,6820
2018-06-11T05:18:30.500Z,6420
2018-06-11T05:19:30.499Z,5692
2018-06-11T05:20:30.572Z,4964
2018-06-11T05:21:30.592Z,4680
2018-06-11T05:22:30.503Z,4656
2018-06-11T05:23:30.533Z,4792
2018-06-11T05:24:30.513Z,4924
2018-06-11T05:25:30.477Z,5132
2018-06-11T05:26:30.646Z,5700
2018-06-11T05:27:30.651Z,6688
2018-06-11T05:28:30.605Z,8164
2018-06-11T05:29:30.483Z,9728
2018-06-11T05:30:30.613Z,10780
2018-06-11T05:31:30.553Z,11256
2018-06-11T05:32:30.534Z,11532
2018-06-11T05:33:30.646Z,11848
2018-06-11T05:34:30.601Z,12244
2018-06-11T05:35:30.578Z,12472
2018-06-11T05:36:30.509Z,12216
2018-06-11T05:37:30.584Z,11852
2018-06-11T05:38:30.553Z,11404
2018-06-11T05:39:30.558Z,10776
2018-06-11T05:40:30.569Z,10140
2018-06-11T05:41:30.590Z,9480
2018-06-11T05:42:30.518Z,9288
2018-06-11T05:43:30.586Z,9836
2018-06-11T05:44:30.486Z,10256
2018-06-11T05:45:30.605Z,10252
2018-06-11T05:46:30.588Z,9912
2018-06-11T05:47:30.508Z,9760
2018-06-11T05:48:30.621Z,9780
2018-06-11T05:49:30.618Z,9392
2018-06-11T05:50:30.529Z,9152
2018-06-11T05:51:30.514Z,9072
2018-06-11T05:52:30.617Z,9148
2018-06-11T05:53:30.581Z,9416
2018-06-11T05:54:30.560Z,9892
2018-06-11T05:55:30.595Z,10532
2018-06-11T05:56:30.547Z,11680
2018-06-11T05:57:30.603Z,12756
2018-06-11T05:58:30.535Z,13420
2018-06-11T05:59:30.595Z,13824
2018-06-11T06:00:30.601Z,14284
2018-06-11T06:01:30.526Z,14788
2018-06-11T06:02:30.598Z,15204
2018-06-11T06:03:30.533Z,15608
2018-06-11T06:04:30.536Z,15132
2018-06-11T06:05:30.602Z,13356
2018-06-11T06:06:30.561Z,11916
2018-06-11T06:07:30.534Z,10352
2018-06-11T06:08:30.484Z,9424
2018-06-11T06:09:30.532Z,9048
2018-06-11T06:10:30.602Z,8636
2018-06-11T06:11:30.541Z,8224
2018-06-11T06:12:30.535Z,8172
2018-06-11T06:13:30.536Z,8484
2018-06-11T06:14:30.606Z,9052
2018-06-11T06:15:30.625Z,9620
2018-06-11T06:16:30.577Z,9900
2018-06-11T06:17:30.574Z,9928
2018-06-11T06:18:30.542Z,10024
2018-06-11T06:19:30.597Z,10612
2018-06-11T06:20:30.636Z,11800
2018-06-11T06:21:30.584Z,13004
2018-06-11T06:22:30.640Z,13904
2018-06-11T06:23:30.551Z,13968
2018-06-11T06:24:30.578Z,13516
2018-06-11T06:25:30.612Z,13292
2018-06-11T06:26:30.592Z,14032
2018-06-11T06:27:30.645Z,15624
2018-06-11T06:28:30.615Z,16992
2018-06-11T06:29:30.594Z,17392
2018-06-11T06:30:30.556Z,17484
2018-06-11T06:31:30.634Z,17800
2018-06-11T06:32:30.650Z,18496
2018-06-11T06:33:30.569Z,19544
2018-06-11T06:34:30.728Z,21096
2018-06-11T06:35:30.575Z,23328
2018-06-11T06:36:30.672Z,25440
2018-06-11T06:37:30.615Z,27008
2018-06-11T06:38:30.643Z,27488
2018-06-11T06:39:30.584Z,26976
2018-06-11T06:40:30.695Z,26272
2018-06-11T06:41:30.600Z,26336
2018-06-11T06:42:30.648Z,27392
2018-06-11T06:43:30.550Z,28384
2018-06-11T06:44:30.600Z,29152
2018-06-11T06:45:30.629Z,30176
2018-06-11T06:46:30.559Z,31776
2018-06-11T06:47:30.630Z,34112
2018-06-11T06:48:30.558Z,36992
2018-06-11T06:49:30.627Z,39456
2018-06-11T06:50:30.559Z,39872
2018-06-11T06:51:30.640Z,38016
2018-06-11T06:52:30.562Z,36384
2018-06-11T06:53:30.635Z,36736
2018-06-11T06:54:30.628Z,37536
2018-06-11T06:55:30.668Z,38080
2018-06-11T06:56:30.596Z,38592
2018-06-11T06:57:30.537Z,39680
2018-06-11T06:58:30.611Z,40608
2018-06-11T06:59:30.672Z,40736
2018-06-11T07:00:30.598Z,40064
2018-06-11T07:01:30.653Z,39072
2018-06-11T07:02:30.598Z,37920
2018-06-11T07:03:30.662Z,36544
2018-06-11T07:04:30.615Z,34656
2018-06-11T07:05:30.615Z,33344
2018-06-11T07:06:30.608Z,33408
2018-06-11T07:07:30.616Z,34368
2018-06-11T07:08:30.566Z,34688
2018-06-11T07:09:30.640Z,33856
2018-06-11T07:10:30.648Z,32096
2018-06-11T07:11:30.545Z,30784
2018-06-11T07:12:30.669Z,30880
2018-06-11T07:13:30.663Z,32000
2018-06-11T07:14:30.663Z,33440
2018-06-11T07:15:30.612Z,34048
2018-06-11T07:16:30.705Z,33856
2018-06-11T07:17:30.672Z,33024
2018-06-11T07:18:30.611Z,32224
2018-06-11T07:19:30.678Z,32512
2018-06-11T07:20:30.666Z,33376
2018-06-11T07:21:30.573Z,34464
2018-06-11T07:22:30.677Z,35392
2018-06-11T07:23:30.572Z,35520
2018-06-11T07:24:30.660Z,35360
2018-06-11T07:25:30.538Z,35360
2018-06-11T07:26:30.580Z,34304
2018-06-11T07:27:30.522Z,33952
2018-06-11T07:28:30.608Z,32864
2018-06-11T07:29:30.523Z,29632
2018-06-11T07:30:30.586Z,28224
2018-06-11T07:31:30.635Z,28672
2018-06-11T07:32:30.641Z,28576
2018-06-11T07:33:30.689Z,28544
2018-06-11T07:34:30.635Z,29152
2018-06-11T07:35:30.659Z,29824
2018-06-11T07:36:30.592Z,30176
2018-06-11T07:37:30.594Z,30816
2018-06-11T07:38:30.618Z,32352
2018-06-11T07:39:30.684Z,34208
2018-06-11T07:40:30.599Z,36000
2018-06-11T07:41:30.614Z,37952
2018-06-11T07:42:30.694Z,40992
2018-06-11T07:43:30.597Z,45472
2018-06-11T07:44:30.665Z,51104
2018-06-11T07:45:30.617Z,56192
2018-06-11T07:46:30.542Z,56992
2018-06-11T07:47:30.573Z,55328
2018-06-11T07:48:30.587Z,54848
2018-06-11T07:49:30.598Z,54208
2018-06-11T07:50:30.620Z,51392
2018-06-11T07:51:30.592Z,46720
2018-06-11T07:52:30.576Z,43584
2018-06-11T07:53:30.619Z,44512
2018-06-11T07:54:30.595Z,48256
2018-06-11T07:55:30.653Z,50528
2018-06-11T07:56:30.641Z,50624
2018-06-11T07:57:30.636Z,48832
2018-06-11T07:58:30.639Z,47936
2018-06-11T07:59:30.718Z,45920
2018-06-11T08:00:30.712Z,44352
2018-06-11T08:01:30.696Z,46048
2018-06-11T08:02:30.598Z,49664
2018-06-11T08:03:30.707Z,54656
2018-06-11T08:04:30.709Z,54784
2018-06-11T08:05:30.752Z,52032
2018-06-11T08:06:30.714Z,50592
2018-06-11T08:07:30.769Z,49376
2018-06-11T08:08:30.704Z,47936
2018-06-11T08:09:30.717Z,45440
2018-06-11T08:10:30.685Z,44768
2018-06-11T08:11:30.700Z,44608
2018-06-11T08:12:30.684Z,43904
2018-06-11T08:13:30.785Z,42528
2018-06-11T08:14:30.621Z,40832
2018-06-11T08:15:30.618Z,40032
2018-06-11T08:16:30.688Z,41056
2018-06-11T08:17:30.622Z,43232
2018-06-11T08:18:30.688Z,45760
2018-06-11T08:19:30.620Z,47424
2018-06-11T08:20:30.624Z,49280
2018-06-11T08:21:30.621Z,51104
2018-06-11T08:22:30.649Z,53088
2018-06-11T08:23:30.624Z,52832
2018-06-11T08:24:30.694Z,51776
2018-06-11T08:25:30.682Z,50976
2018-06-11T08:26:30.616Z,52000
2018-06-11T08:27:30.762Z,52928
2018-06-11T08:28:30.680Z,52864
2018-06-11T08:29:30.689Z,55936
2018-06-11T08:30:30.684Z,59488
2018-06-11T08:31:30.688Z,59360
2018-06-11T08:32:30.634Z,57120
2018-06-11T08:33:30.690Z,54144
2018-06-11T08:34:30.654Z,51936
2018-06-11T08:35:30.701Z,52608
2018-06-11T08:36:30.666Z,55968
2018-06-11T08:37:30.715Z,60896
2018-06-11T08:38:30.725Z,67648
2018-06-11T08:39:30.701Z,77696
2018-06-11T08:40:30.703Z,77696
2018-06-11T08:41:30.708Z,74880
2018-06-11T08:42:30.612Z,73824
2018-06-11T08:43:30.611Z,72544
2018-06-11T08:44:30.721Z,71008
2018-06-11T08:45:30.641Z,67488
2018-06-11T08:46:30.627Z,65152
2018-06-11T08:47:30.744Z,65792
2018-06-11T08:48:30.730Z,66912
2018-06-11T08:49:30.672Z,69408
2018-06-11T08:50:30.708Z,73024
2018-06-11T08:51:30.685Z,77536
2018-06-11T08:52:30.679Z,81344
2018-06-11T08:53:30.709Z,82336
2018-06-11T08:54:30.750Z,83616
2018-06-11T08:55:30.713Z,82464
2018-06-11T08:56:30.644Z,82720
2018-06-11T08:57:30.691Z,86560
2018-06-11T08:58:30.651Z,100096
2018-06-11T08:59:30.651Z,100032
2018-06-11T09:00:30.646Z,86848
2018-06-11T09:01:30.600Z,85344
2018-06-11T09:02:30.653Z,82208
2018-06-11T09:03:30.650Z,76992
2018-06-11T09:04:30.718Z,74304
2018-06-11T09:05:30.677Z,67232
2018-06-11T09:06:30.698Z,63488
2018-06-11T09:07:30.758Z,68352
2018-06-11T09:08:30.800Z,80064
2018-06-11T09:09:30.690Z,86016
2018-06-11T09:10:30.755Z,86240
2018-06-11T09:11:30.697Z,88096
2018-06-11T09:12:30.692Z,88064
2018-06-11T09:13:30.721Z,83680
2018-06-11T09:14:30.753Z,82464
2018-06-11T09:15:30.765Z,82432
2018-06-11T09:16:30.751Z,82368
2018-06-11T09:17:30.704Z,82464
2018-06-11T09:18:30.820Z,82656
2018-06-11T09:19:30.705Z,83584
2018-06-11T09:20:30.686Z,83872
2018-06-11T09:21:30.669Z,83712
2018-06-11T09:22:30.655Z,82848
2018-06-11T09:23:30.633Z,82368
2018-06-11T09:24:30.747Z,82560
2018-06-11T09:25:30.651Z,82496
2018-06-11T09:26:30.703Z,84768
2018-06-11T09:27:30.656Z,90208
2018-06-11T09:28:30.686Z,85024
2018-06-11T09:29:30.752Z,86112
2018-06-11T09:30:30.731Z,85440
2018-06-11T09:31:30.702Z,86560
2018-06-11T09:32:30.733Z,87072
2018-06-11T09:33:30.713Z,89376
2018-06-11T09:34:30.778Z,93632
2018-06-11T09:35:30.662Z,100960
2018-06-11T09:36:30.739Z,104480
2018-06-11T09:37:30.719Z,103296
2018-06-11T09:38:30.660Z,100864
2018-06-11T09:39:30.716Z,106848
2018-06-11T09:40:30.702Z,157248
2018-06-11T09:41:30.719Z,108384
2018-06-11T09:42:30.718Z,102048
2018-06-11T09:43:30.680Z,107488
2018-06-11T09:44:30.650Z,117504
2018-06-11T09:45:30.706Z,223552
2018-06-11T09:46:30.668Z,210624
2018-06-11T09:47:30.746Z,200992
2018-06-11T09:48:30.761Z,196800
2018-06-11T09:49:30.750Z,179264
2018-06-11T09:50:30.730Z,154304
2018-06-11T09:51:30.785Z,136288
2018-06-11T09:52:30.750Z,171264
2018-06-11T09:53:30.789Z,163968
2018-06-11T09:54:30.706Z,182656
2018-06-11T09:55:30.728Z,188992
2018-06-11T09:56:30.782Z,187072
2018-06-11T09:57:30.752Z,175424
2018-06-11T09:58:30.778Z,129536
2018-06-11T09:59:30.751Z,107712
2018-06-11T10:00:30.793Z,128640
2018-06-11T10:01:30.659Z,142848
2018-06-11T10:02:30.734Z,172288
2018-06-11T10:03:30.790Z,161664
2018-06-11T10:04:30.756Z,112000
2018-06-11T10:05:30.721Z,126464
2018-06-11T10:06:30.721Z,113376
2018-06-11T10:07:30.728Z,119872
2018-06-11T10:08:30.696Z,128416
2018-06-11T10:09:30.790Z,131552
2018-06-11T10:10:30.669Z,170912
2018-06-11T10:11:30.826Z,162048
2018-06-11T10:12:30.826Z,144096
2018-06-11T10:13:30.778Z,156416
2018-06-11T10:14:30.736Z,161792
2018-06-11T10:15:30.778Z,158848
2018-06-11T10:16:30.787Z,159712
2018-06-11T10:17:30.725Z,162048
2018-06-11T10:18:30.721Z,164224
2018-06-11T10:19:30.734Z,158816
2018-06-11T10:20:30.762Z,154336
2018-06-11T10:21:30.743Z,151648
2018-06-11T10:22:30.736Z,153824
2018-06-11T10:23:30.750Z,155904
2018-06-11T10:24:30.795Z,157504
2018-06-11T10:25:30.723Z,162176
2018-06-11T10:26:30.709Z,165120
2018-06-11T10:27:30.677Z,166240
2018-06-11T10:28:30.799Z,163680
2018-06-11T10:29:30.810Z,163968
2018-06-11T10:30:30.739Z,164160
2018-06-11T10:31:30.799Z,166112
2018-06-11T10:32:30.695Z,165760
2018-06-11T10:33:30.738Z,167328
2018-06-11T10:34:30.733Z,170464
2018-06-11T10:35:30.684Z,168832
2018-06-11T10:36:30.711Z,166528
2018-06-11T10:37:30.781Z,164320
2018-06-11T10:38:30.715Z,160832
2018-06-11T10:39:30.780Z,156704
2018-06-11T10:40:30.712Z,153440
2018-06-11T10:41:30.784Z,153408
2018-06-11T10:42:30.717Z,156096
2018-06-11T10:43:30.785Z,161952
2018-06-11T10:44:30.713Z,165600
2018-06-11T10:45:30.786Z,167296
2018-06-11T10:46:30.685Z,164480
2018-06-11T10:47:30.684Z,160896
2018-06-11T10:48:30.817Z,157344
2018-06-11T10:49:30.784Z,156544
2018-06-11T10:50:30.787Z,155488
2018-06-11T10:51:30.815Z,156864
2018-06-11T10:52:30.791Z,156960
2018-06-11T10:53:30.709Z,155904
2018-06-11T10:54:30.760Z,155744
2018-06-11T10:55:30.759Z,156640
2018-06-11T10:56:30.791Z,159424
2018-06-11T10:57:30.794Z,159808
2018-06-11T10:58:30.733Z,159232
2018-06-11T10:59:30.752Z,163168
2018-06-11T11:00:30.808Z,160352
2018-06-11T11:01:30.798Z,159616
2018-06-11T11:02:30.786Z,158944
2018-06-11T11:03:30.730Z,158624
2018-06-11T11:04:30.806Z,159424
2018-06-11T11:05:30.730Z,160992
2018-06-11T11:06:30.813Z,165376
2018-06-11T11:07:30.825Z,168096
2018-06-11T11:08:30.766Z,167552
2018-06-11T11:09:30.762Z,165504
2018-06-11T11:10:30.841Z,163744
2018-06-11T11:11:30.801Z,162528
2018-06-11T11:12:30.806Z,166112
2018-06-11T11:13:30.840Z,168960
2018-06-11T11:14:30.724Z,172064
2018-06-11T11:15:30.890Z,174688
2018-06-11T11:16:30.826Z,174528
2018-06-11T11:17:30.764Z,168576
2018-06-11T11:18:30.770Z,162944
2018-06-11T11:19:30.845Z,153600
2018-06-11T11:20:30.839Z,156864
2018-06-11T11:21:30.809Z,155264
2018-06-11T11:22:30.787Z,156960
2018-06-11T11:23:30.809Z,159712
2018-06-11T11:24:30.790Z,163808
2018-06-11T11:25:30.778Z,168544
2018-06-11T11:26:30.831Z,173120
2018-06-11T11:27:30.839Z,172640
2018-06-11T11:28:30.836Z,169024
2018-06-11T11:29:30.737Z,162400
2018-06-11T11:30:30.814Z,161472
2018-06-11T11:31:30.784Z,166432
2018-06-11T11:32:30.773Z,166880
2018-06-11T11:33:30.739Z,170272
2018-06-11T11:34:30.794Z,170944
2018-06-11T11:35:30.855Z,166848
2018-06-11T11:36:30.722Z,156480
2018-06-11T11:37:30.776Z,152416
2018-06-11T11:38:30.753Z,147360
2018-06-11T11:39:30.716Z,144960
2018-06-11T11:40:30.857Z,148096
2018-06-11T11:41:30.852Z,153920
2018-06-11T11:42:30.783Z,160768
2018-06-11T11:43:30.859Z,137824
2018-06-11T11:44:30.842Z,122304
2018-06-11T11:45:30.722Z,108096
2018-06-11T11:46:30.709Z,121280
2018-06-11T11:47:30.808Z,128096
2018-06-11T11:48:30.815Z,140512
2018-06-11T11:49:30.811Z,152800
2018-06-11T11:50:30.732Z,156608
2018-06-11T11:51:30.823Z,158816
2018-06-11T11:52:30.736Z,159616
2018-06-11T11:53:30.739Z,160224
2018-06-11T11:54:30.738Z,158400
2018-06-11T11:55:30.830Z,153952
2018-06-11T11:56:30.785Z,149760
2018-06-11T11:57:30.834Z,146880
2018-06-11T11:58:30.857Z,145984
2018-06-11T11:59:30.863Z,149728
2018-06-11T12:00:30.850Z,156000
2018-06-11T12:01:30.871Z,160544
2018-06-11T12:02:30.812Z,164672
2018-06-11T12:03:30.790Z,167520
2018-06-11T12:04:30.858Z,166976
2018-06-11T12:05:30.859Z,165312
2018-06-11T12:06:30.814Z,163520
2018-06-11T12:07:30.747Z,163616
2018-06-11T12:08:30.857Z,161792
2018-06-11T12:09:30.742Z,160992
2018-06-11T12:10:30.745Z,162464
2018-06-11T12:11:30.743Z,162624
2018-06-11T12:12:30.863Z,163136
2018-06-11T12:13:30.809Z,164960
2018-06-11T12:14:30.801Z,162720
2018-06-11T12:15:30.755Z,162336
2018-06-11T12:16:30.777Z,161024
2018-06-11T12:17:30.844Z,158016
2018-06-11T12:18:30.777Z,161248
2018-06-11T12:19:30.850Z,157888
2018-06-11T12:20:30.790Z,155776
2018-06-11T12:21:30.854Z,145920
2018-06-11T12:22:30.850Z,153344
2018-06-11T12:23:30.783Z,152128
2018-06-11T12:24:30.856Z,147904
2018-06-11T12:25:30.849Z,155232
2018-06-11T12:26:30.853Z,170592
2018-06-11T12:27:30.757Z,166464
2018-06-11T12:28:30.821Z,163520
2018-06-11T12:29:30.811Z,166784
2018-06-11T12:30:30.880Z,157696
2018-06-11T12:31:30.892Z,153856
2018-06-11T12:32:30.760Z,153344
2018-06-11T12:33:30.836Z,147744
2018-06-11T12:34:30.833Z,140576
2018-06-11T12:35:30.880Z,138624
2018-06-11T12:36:30.791Z,138816
2018-06-11T12:37:30.848Z,141280
2018-06-11T12:38:30.789Z,142816
2018-06-11T12:39:30.857Z,140864
2018-06-11T12:40:30.853Z,134336
2018-06-11T12:41:30.854Z,128768
2018-06-11T12:42:30.764Z,128800
2018-06-11T12:43:30.858Z,124992
2018-06-11T12:44:30.767Z,110848
2018-06-11T12:45:30.867Z,107040
2018-06-11T12:46:30.896Z,99712
2018-06-11T12:47:30.881Z,106944
2018-06-11T12:48:30.897Z,105216
2018-06-11T12:49:30.771Z,121472
2018-06-11T12:50:30.829Z,121632
2018-06-11T12:51:30.848Z,129792
2018-06-11T12:52:30.873Z,125984
2018-06-11T12:53:30.768Z,104832
2018-06-11T12:54:30.829Z,122464
2018-06-11T12:55:30.849Z,144256
2018-06-11T12:56:30.847Z,150976
2018-06-11T12:57:30.889Z,138304
2018-06-11T12:58:30.831Z,145184
2018-06-11T12:59:30.900Z,153568
2018-06-11T13:00:30.904Z,153344
2018-06-11T13:01:30.852Z,150176
2018-06-11T13:02:30.826Z,145856
2018-06-11T13:03:30.846Z,142912
2018-06-11T13:04:30.842Z,141824
2018-06-11T13:05:30.905Z,143584
2018-06-11T13:06:30.843Z,129152
2018-06-11T13:07:30.909Z,150144
2018-06-11T13:08:30.777Z,148704
2018-06-11T13:09:30.910Z,150432
2018-06-11T13:10:30.899Z,137376
2018-06-11T13:11:30.858Z,145984
2018-06-11T13:12:30.846Z,142272
2018-06-11T13:13:30.845Z,147360
2018-06-11T13:14:30.885Z,146848